Time;durP1;ratioP1;P1;durP2;ratioP2;P2;SDS_P1;SDS_P2;PMS_P1;PMS_P2;Temp;Humidity;BMP_temperature;BMP_pressure;BME280_temperature;BME280_humidity;BME280_pressure;Samples;Min_cycle;Max_cycle;Signal;HPM_P1;HPM_P2
2022/11/14 00:00:24;;;;;;;4.25;3.95;;;;;;;;;;5036454;28;20245;-70
2022/11/14 00:02:52;;;;;;;4.30;4.00;;;;;;;;;;5037198;28;20225;-70
2022/11/14 00:05:19;;;;;;;4.18;3.88;;;;;;;;;;5036873;28;20587;-70
2022/11/14 00:07:47;;;;;;;4.45;4.05;;;;;;;;;;5036411;28;20498;-70
2022/11/14 00:10:16;;;;;;;4.60;4.20;;;;;;;;;;5037055;28;20205;-70
2022/11/14 00:12:43;;;;;;;4.90;4.50;;;;;;;;;;5036833;28;20210;-70
2022/11/14 00:15:11;;;;;;;4.50;4.10;;;;;;;;;;5037112;28;20212;-70
2022/11/14 00:17:39;;;;;;;4.70;4.30;;;;;;;;;;5037094;28;20205;-70
2022/11/14 00:20:08;;;;;;;4.88;4.38;;;;;;;;;;5037214;28;20316;-70
2022/11/14 00:22:35;;;;;;;4.65;4.25;;;;;;;;;;5036878;28;20233;-70
2022/11/14 00:25:03;;;;;;;4.43;4.03;;;;;;;;;;5036797;28;20205;-70
2022/11/14 00:27:32;;;;;;;4.82;4.43;;;;;;;;;;5036947;28;20486;-70
2022/11/14 00:29:59;;;;;;;4.85;4.43;;;;;;;;;;5036944;28;20210;-70
2022/11/14 00:32:26;;;;;;;4.72;4.32;;;;;;;;;;5036391;28;20219;-70
2022/11/14 00:34:54;;;;;;;4.63;4.22;;;;;;;;;;5036675;28;20201;-70
2022/11/14 00:37:21;;;;;;;5.20;4.80;;;;;;;;;;5037331;28;20205;-70
2022/11/14 00:39:49;;;;;;;5.32;4.93;;;;;;;;;;5036997;28;20206;-70
2022/11/14 00:42:16;;;;;;;5.13;4.72;;;;;;;;;;5036785;28;20225;-70
2022/11/14 00:44:45;;;;;;;5.20;4.80;;;;;;;;;;5036534;28;20205;-70
2022/11/14 00:47:13;;;;;;;4.95;4.55;;;;;;;;;;5036469;28;20498;-70
2022/11/14 00:49:40;;;;;;;5.47;5.07;;;;;;;;;;5036848;28;20212;-70
2022/11/14 00:52:08;;;;;;;5.13;4.70;;;;;;;;;;5036885;28;20204;-70
2022/11/14 00:54:35;;;;;;;5.00;4.60;;;;;;;;;;5037212;28;20214;-70
2022/11/14 00:57:02;;;;;;;5.13;4.70;;;;;;;;;;5036895;28;20216;-70
2022/11/14 00:59:30;;;;;;;5.13;4.72;;;;;;;;;;5036943;28;20240;-71
2022/11/14 01:01:59;;;;;;;5.20;4.78;;;;;;;;;;5036813;28;20309;-70
2022/11/14 01:04:26;;;;;;;5.00;4.60;;;;;;;;;;5036089;28;20216;-70
2022/11/14 01:06:54;;;;;;;5.43;4.65;;;;;;;;;;5036264;28;20241;-71
2022/11/14 01:09:21;;;;;;;5.20;4.72;;;;;;;;;;5036203;28;20591;-70
2022/11/14 01:11:48;;;;;;;5.30;4.85;;;;;;;;;;5036949;28;20224;-70
2022/11/14 01:14:16;;;;;;;5.60;5.10;;;;;;;;;;5040279;28;20304;-70
2022/11/14 01:16:43;;;;;;;5.45;4.95;;;;;;;;;;5040304;28;20202;-70
2022/11/14 01:19:12;;;;;;;5.13;4.72;;;;;;;;;;5040124;28;20205;-70
2022/11/14 01:21:39;;;;;;;5.57;5.10;;;;;;;;;;5039826;28;20206;-70
2022/11/14 01:24:07;;;;;;;5.72;5.28;;;;;;;;;;5039906;28;20206;-70
2022/11/14 01:26:35;;;;;;;6.03;5.43;;;;;;;;;;5040011;28;20197;-70
2022/11/14 01:29:02;;;;;;;5.68;5.18;;;;;;;;;;5039958;28;20209;-70
2022/11/14 01:31:29;;;;;;;5.30;4.80;;;;;;;;;;5040107;28;20206;-70
2022/11/14 01:33:57;;;;;;;5.40;4.90;;;;;;;;;;5039959;28;20482;-70
2022/11/14 01:36:26;;;;;;;5.50;5.00;;;;;;;;;;5040319;28;20568;-70
2022/11/14 01:38:53;;;;;;;5.07;4.68;;;;;;;;;;5039730;28;20205;-70
2022/11/14 01:41:21;;;;;;;5.30;4.85;;;;;;;;;;5039547;28;20217;-70
2022/11/14 01:43:49;;;;;;;5.15;4.70;;;;;;;;;;5039718;28;20233;-70
2022/11/14 01:46:19;;;;;;;5.47;4.97;;;;;;;;;;5039754;28;20205;-70
2022/11/14 01:48:48;;;;;;;5.88;5.30;;;;;;;;;;5039930;28;20209;-70
2022/11/14 01:51:18;;;;;;;5.55;5.05;;;;;;;;;;5039955;28;20297;-70
2022/11/14 01:53:48;;;;;;;5.90;5.40;;;;;;;;;;5039640;28;20201;-70
2022/11/14 01:56:18;;;;;;;5.72;5.30;;;;;;;;;;5039888;28;20220;-70
2022/11/14 01:58:47;;;;;;;6.00;5.50;;;;;;;;;;5039852;28;20246;-70
2022/11/14 02:01:14;;;;;;;5.22;4.72;;;;;;;;;;5039696;28;20205;-70
2022/11/14 02:03:44;;;;;;;5.65;5.15;;;;;;;;;;5039660;28;20229;-70
2022/11/14 02:06:14;;;;;;;5.63;5.13;;;;;;;;;;5039729;28;20216;-70
2022/11/14 02:08:42;;;;;;;5.63;5.15;;;;;;;;;;5039560;28;20216;-70
2022/11/14 02:11:12;;;;;;;5.82;5.20;;;;;;;;;;5039412;28;20583;-70
2022/11/14 02:13:40;;;;;;;5.97;5.47;;;;;;;;;;5039585;28;20205;-70
2022/11/14 02:16:07;;;;;;;6.20;5.70;;;;;;;;;;5039308;28;20598;-70
2022/11/14 02:18:34;;;;;;;6.47;5.90;;;;;;;;;;5039601;28;20232;-70
2022/11/14 02:21:03;;;;;;;5.40;5.00;;;;;;;;;;5039112;28;20206;-70
2022/11/14 02:23:32;;;;;;;5.55;5.15;;;;;;;;;;5038625;28;20225;-70
2022/11/14 02:26:00;;;;;;;5.40;5.00;;;;;;;;;;5039346;28;20239;-70
2022/11/14 02:28:27;;;;;;;5.85;5.35;;;;;;;;;;5038997;28;20298;-70
2022/11/14 02:30:55;;;;;;;6.07;5.57;;;;;;;;;;5039297;28;20205;-70
2022/11/14 02:33:22;;;;;;;5.90;5.40;;;;;;;;;;5039369;28;20230;-70
2022/11/14 02:35:49;;;;;;;6.18;5.63;;;;;;;;;;5039125;28;20216;-70
2022/11/14 02:38:18;;;;;;;6.32;5.72;;;;;;;;;;5039132;28;20209;-70
2022/11/14 02:40:45;;;;;;;6.22;5.72;;;;;;;;;;5039119;28;20491;-70
2022/11/14 02:43:13;;;;;;;6.03;5.53;;;;;;;;;;5039063;28;20610;-70
2022/11/14 02:45:40;;;;;;;5.97;5.47;;;;;;;;;;5039189;28;20459;-70
2022/11/14 02:48:08;;;;;;;5.72;5.22;;;;;;;;;;5039020;28;20205;-70
2022/11/14 02:50:35;;;;;;;5.95;5.45;;;;;;;;;;5038928;28;20211;-70
2022/11/14 02:53:02;;;;;;;5.80;5.40;;;;;;;;;;5038992;28;20498;-70
2022/11/14 02:55:31;;;;;;;5.78;5.28;;;;;;;;;;5038755;28;20483;-70
2022/11/14 02:57:58;;;;;;;5.97;5.47;;;;;;;;;;5039071;28;20493;-70
2022/11/14 03:00:26;;;;;;;5.97;5.47;;;;;;;;;;5038573;28;20649;-70
2022/11/14 03:02:53;;;;;;;6.00;5.50;;;;;;;;;;5038762;28;20615;-70
2022/11/14 03:05:21;;;;;;;6.03;5.53;;;;;;;;;;5038798;28;20206;-70
2022/11/14 03:07:48;;;;;;;5.90;5.40;;;;;;;;;;5038693;28;20205;-70
2022/11/14 03:10:16;;;;;;;5.93;5.43;;;;;;;;;;5038269;28;20216;-70
2022/11/14 03:12:44;;;;;;;5.43;5.03;;;;;;;;;;5038297;28;20201;-70
2022/11/14 03:15:12;;;;;;;5.70;5.30;;;;;;;;;;5038007;28;20844;-70
2022/11/14 03:17:39;;;;;;;5.82;5.32;;;;;;;;;;5038281;28;20754;-70
2022/11/14 03:20:07;;;;;;;6.80;6.20;;;;;;;;;;5038402;28;20482;-70
2022/11/14 03:22:34;;;;;;;5.80;5.30;;;;;;;;;;5038031;28;20233;-70
2022/11/14 03:25:02;;;;;;;5.93;5.43;;;;;;;;;;5037895;28;20287;-70
2022/11/14 03:27:29;;;;;;;5.35;4.85;;;;;;;;;;5038207;28;20214;-70
2022/11/14 03:29:58;;;;;;;5.78;5.28;;;;;;;;;;5037611;28;20205;-70
2022/11/14 03:32:25;;;;;;;6.05;5.55;;;;;;;;;;5038165;28;20205;-70
2022/11/14 03:34:53;;;;;;;5.72;5.22;;;;;;;;;;5037386;28;20597;-70
2022/11/14 03:37:20;;;;;;;5.95;5.45;;;;;;;;;;5038094;28;20205;-70
2022/11/14 03:39:48;;;;;;;5.65;5.15;;;;;;;;;;5037676;28;20209;-70
2022/11/14 03:42:15;;;;;;;6.07;5.57;;;;;;;;;;5037626;28;20212;-70
2022/11/14 03:44:42;;;;;;;5.32;4.93;;;;;;;;;;5037546;28;20236;-70
2022/11/14 03:47:11;;;;;;;5.88;5.38;;;;;;;;;;5037872;28;20212;-70
2022/11/14 03:49:39;;;;;;;6.32;5.82;;;;;;;;;;5037809;28;20206;-70
2022/11/14 03:52:06;;;;;;;6.28;5.78;;;;;;;;;;5037711;28;20232;-70
2022/11/14 03:54:34;;;;;;;6.40;5.80;;;;;;;;;;5037854;28;20202;-70
2022/11/14 03:57:01;;;;;;;6.03;5.53;;;;;;;;;;5037465;28;20210;-70
2022/11/14 03:59:29;;;;;;;6.00;5.50;;;;;;;;;;5037182;28;20248;-70
2022/11/14 04:01:56;;;;;;;6.00;5.50;;;;;;;;;;5037145;28;20201;-70
2022/11/14 04:04:25;;;;;;;5.90;5.40;;;;;;;;;;5037470;28;20239;-70
2022/11/14 04:06:52;;;;;;;5.60;5.10;;;;;;;;;;5037023;28;20504;-70
2022/11/14 04:09:19;;;;;;;6.00;5.50;;;;;;;;;;5037783;28;20205;-70
2022/11/14 04:11:47;;;;;;;6.38;5.88;;;;;;;;;;5037389;28;20212;-70
2022/11/14 04:14:14;;;;;;;5.68;5.25;;;;;;;;;;5036977;28;20213;-70
2022/11/14 04:16:42;;;;;;;6.10;5.60;;;;;;;;;;5037091;28;20304;-70
2022/11/14 04:19:09;;;;;;;5.97;5.47;;;;;;;;;;5037278;28;20233;-70
2022/11/14 04:21:38;;;;;;;5.95;5.45;;;;;;;;;;5037221;28;20213;-70
2022/11/14 04:24:05;;;;;;;5.70;5.20;;;;;;;;;;5037772;28;20229;-70
2022/11/14 04:26:32;;;;;;;5.75;5.25;;;;;;;;;;5036888;28;20219;-70
2022/11/14 04:29:00;;;;;;;5.88;5.38;;;;;;;;;;5036979;28;20205;-70
2022/11/14 04:31:27;;;;;;;6.10;5.50;;;;;;;;;;5037315;28;20205;-70
2022/11/14 04:33:55;;;;;;;5.75;5.25;;;;;;;;;;5036779;28;20202;-70
2022/11/14 04:36:22;;;;;;;6.15;5.65;;;;;;;;;;5036920;28;20255;-70
2022/11/14 04:38:51;;;;;;;5.90;5.40;;;;;;;;;;5036703;28;20209;-70
2022/11/14 04:41:18;;;;;;;5.60;5.10;;;;;;;;;;5036888;28;20209;-70
2022/11/14 04:43:45;;;;;;;6.00;5.50;;;;;;;;;;5036491;28;20517;-70
2022/11/14 04:46:13;;;;;;;5.97;5.47;;;;;;;;;;5038129;28;20205;-70
2022/11/14 04:48:40;;;;;;;5.88;5.40;;;;;;;;;;5040454;28;20205;-70
2022/11/14 04:51:08;;;;;;;5.95;5.45;;;;;;;;;;5040746;28;20220;-70
2022/11/14 04:53:35;;;;;;;6.07;5.57;;;;;;;;;;5040509;28;20216;-70
2022/11/14 04:56:04;;;;;;;6.13;5.63;;;;;;;;;;5040743;28;20228;-70
2022/11/14 04:58:31;;;;;;;5.93;5.43;;;;;;;;;;5040125;28;20241;-70
2022/11/14 05:00:59;;;;;;;6.38;5.78;;;;;;;;;;5039875;28;20602;-70
2022/11/14 05:03:26;;;;;;;6.63;6.03;;;;;;;;;;5039741;28;20233;-70
2022/11/14 05:05:54;;;;;;;6.25;5.75;;;;;;;;;;5039785;28;20617;-70
2022/11/14 05:08:21;;;;;;;5.95;5.47;;;;;;;;;;5039764;28;20214;-70
2022/11/14 05:10:48;;;;;;;6.07;5.57;;;;;;;;;;5039420;28;20214;-70
2022/11/14 05:13:17;;;;;;;6.47;5.97;;;;;;;;;;5039151;28;20300;-70
2022/11/14 05:15:44;;;;;;;6.13;5.60;;;;;;;;;;5039646;28;20594;-70
2022/11/14 05:18:12;;;;;;;5.55;5.05;;;;;;;;;;5039868;28;20212;-70
2022/11/14 05:20:40;;;;;;;5.93;5.40;;;;;;;;;;5039604;28;20649;-70
2022/11/14 05:23:07;;;;;;;5.93;5.43;;;;;;;;;;5038905;28;20489;-70
2022/11/14 05:25:34;;;;;;;5.70;5.20;;;;;;;;;;5039578;28;20587;-70
2022/11/14 05:28:02;;;;;;;6.40;5.80;;;;;;;;;;5039590;28;20210;-70
2022/11/14 05:30:31;;;;;;;6.28;5.68;;;;;;;;;;5039838;28;20206;-70
2022/11/14 05:32:59;;;;;;;5.93;5.43;;;;;;;;;;5038721;28;20511;-70
2022/11/14 05:35:27;;;;;;;5.75;5.15;;;;;;;;;;5039062;28;20212;-70
2022/11/14 05:37:54;;;;;;;5.90;5.40;;;;;;;;;;5039242;28;20213;-70
2022/11/14 05:40:21;;;;;;;5.78;5.28;;;;;;;;;;5038837;28;20210;-70
2022/11/14 05:42:49;;;;;;;6.28;5.78;;;;;;;;;;5039079;28;20206;-70
2022/11/14 05:45:16;;;;;;;6.20;5.60;;;;;;;;;;5038743;28;20236;-70
2022/11/14 05:47:45;;;;;;;5.82;5.32;;;;;;;;;;5038627;28;20563;-70
2022/11/14 05:50:13;;;;;;;6.50;5.78;;;;;;;;;;5038033;28;20206;-70
2022/11/14 05:52:40;;;;;;;6.40;5.80;;;;;;;;;;5037660;28;20206;-70
2022/11/14 05:55:08;;;;;;;6.00;5.50;;;;;;;;;;5037811;28;20212;-71
2022/11/14 05:57:35;;;;;;;5.88;5.38;;;;;;;;;;5037484;28;20217;-71
2022/11/14 06:00:03;;;;;;;6.03;5.50;;;;;;;;;;5037451;28;20233;-71
2022/11/14 06:02:30;;;;;;;5.70;5.20;;;;;;;;;;5036691;28;20519;-71
2022/11/14 06:04:59;;;;;;;6.38;5.80;;;;;;;;;;5036990;28;20257;-70
2022/11/14 06:07:26;;;;;;;5.90;5.40;;;;;;;;;;5036141;28;20227;-70
2022/11/14 06:09:54;;;;;;;6.22;5.72;;;;;;;;;;5037217;28;20503;-70
2022/11/14 06:12:22;;;;;;;6.43;5.82;;;;;;;;;;5041952;28;20869;-70
2022/11/14 06:14:50;;;;;;;6.53;5.93;;;;;;;;;;5056479;28;20208;-70
2022/11/14 06:17:18;;;;;;;6.70;6.03;;;;;;;;;;5056748;28;20205;-70
2022/11/14 06:19:45;;;;;;;6.47;5.88;;;;;;;;;;5055840;28;20215;-70
2022/11/14 06:22:14;;;;;;;5.95;5.45;;;;;;;;;;5055661;28;20201;-70
2022/11/14 06:24:41;;;;;;;6.22;5.70;;;;;;;;;;5055145;28;20232;-71
2022/11/14 06:27:09;;;;;;;6.05;5.47;;;;;;;;;;5056278;28;20234;-71
2022/11/14 06:29:36;;;;;;;5.90;5.40;;;;;;;;;;5055731;28;20287;-71
2022/11/14 06:32:03;;;;;;;6.55;5.95;;;;;;;;;;5056838;28;20204;-71
2022/11/14 06:34:31;;;;;;;6.07;5.53;;;;;;;;;;5056136;28;20205;-71
2022/11/14 06:36:58;;;;;;;5.75;5.35;;;;;;;;;;5055842;28;20212;-71
2022/11/14 06:39:27;;;;;;;6.40;5.90;;;;;;;;;;5056345;28;20205;-71
2022/11/14 06:41:54;;;;;;;6.10;5.60;;;;;;;;;;5055979;28;20216;-71
2022/11/14 06:44:22;;;;;;;7.45;6.15;;;;;;;;;;5056222;28;20233;-71
2022/11/14 06:46:50;;;;;;;6.25;5.65;;;;;;;;;;5056107;28;20623;-70
2022/11/14 06:49:17;;;;;;;6.43;5.90;;;;;;;;;;5055433;28;20478;-70
2022/11/14 06:51:44;;;;;;;5.70;5.20;;;;;;;;;;5055648;28;20574;-70
2022/11/14 06:54:12;;;;;;;6.30;5.80;;;;;;;;;;5055861;28;20737;-70
2022/11/14 06:56:41;;;;;;;6.22;5.72;;;;;;;;;;5055209;28;20208;-70
2022/11/14 06:59:08;;;;;;;6.20;5.70;;;;;;;;;;5054870;28;20247;-71
2022/11/14 07:01:35;;;;;;;6.25;5.75;;;;;;;;;;5055873;28;20516;-71
2022/11/14 07:04:03;;;;;;;6.07;5.57;;;;;;;;;;5055532;28;20255;-71
2022/11/14 07:06:31;;;;;;;6.68;6.07;;;;;;;;;;5056300;28;20288;-71
2022/11/14 07:08:59;;;;;;;6.57;5.97;;;;;;;;;;5054882;28;20205;-71
2022/11/14 07:11:28;;;;;;;6.25;5.75;;;;;;;;;;5055678;28;20211;-71
2022/11/14 07:13:57;;;;;;;6.32;5.82;;;;;;;;;;5056050;28;20211;-71
2022/11/14 07:16:28;;;;;;;5.95;5.45;;;;;;;;;;5048466;28;20209;-71
2022/11/14 07:18:55;;;;;;;6.60;6.00;;;;;;;;;;5035730;28;20304;-71
2022/11/14 07:21:23;;;;;;;6.38;5.88;;;;;;;;;;5035333;28;20198;-70
2022/11/14 07:23:51;;;;;;;6.03;5.53;;;;;;;;;;5035635;28;20251;-70
2022/11/14 07:26:18;;;;;;;6.18;5.60;;;;;;;;;;5036117;28;20232;-70
2022/11/14 07:28:46;;;;;;;6.18;5.68;;;;;;;;;;5035572;28;20304;-70
2022/11/14 07:31:16;;;;;;;6.72;6.13;;;;;;;;;;5035239;28;20197;-70
2022/11/14 07:33:44;;;;;;;6.05;5.55;;;;;;;;;;5034445;28;20212;-70
2022/11/14 07:36:11;;;;;;;5.88;5.30;;;;;;;;;;5034699;28;20217;-70
2022/11/14 07:38:39;;;;;;;6.07;5.57;;;;;;;;;;5034783;28;20471;-70
2022/11/14 07:41:07;;;;;;;6.15;5.60;;;;;;;;;;5035257;28;20231;-70
2022/11/14 07:43:35;;;;;;;6.13;5.63;;;;;;;;;;5035362;28;20470;-70
2022/11/14 07:46:02;;;;;;;6.53;5.82;;;;;;;;;;5036090;28;20215;-70
2022/11/14 07:48:31;;;;;;;6.07;5.50;;;;;;;;;;5034993;28;20205;-70
2022/11/14 07:51:00;;;;;;;6.00;5.50;;;;;;;;;;5034149;28;20252;-70
2022/11/14 07:53:27;;;;;;;5.97;5.47;;;;;;;;;;5035139;28;20197;-70
2022/11/14 07:55:55;;;;;;;6.22;5.72;;;;;;;;;;5038914;28;20209;-70
2022/11/14 07:58:22;;;;;;;6.45;5.88;;;;;;;;;;5055347;28;20211;-70
2022/11/14 08:00:50;;;;;;;6.43;5.90;;;;;;;;;;5054492;28;20255;-70
2022/11/14 08:03:17;;;;;;;6.40;5.88;;;;;;;;;;5054597;28;20201;-70
2022/11/14 08:05:46;;;;;;;6.70;6.10;;;;;;;;;;5054094;28;20234;-70
2022/11/14 08:08:13;;;;;;;6.57;5.97;;;;;;;;;;5054718;28;20201;-70
2022/11/14 08:10:40;;;;;;;6.60;6.00;;;;;;;;;;5055477;28;20205;-70
2022/11/14 08:13:08;;;;;;;6.50;5.97;;;;;;;;;;5054579;28;20205;-71
2022/11/14 08:15:35;;;;;;;5.88;5.38;;;;;;;;;;5054988;28;20263;-71
2022/11/14 08:18:02;;;;;;;6.18;5.63;;;;;;;;;;5053959;28;20331;-71
2022/11/14 08:20:30;;;;;;;6.30;5.80;;;;;;;;;;5053982;28;20217;-71
2022/11/14 08:23:03;;;;;;;6.35;5.80;;;;;;;;;;5054337;28;20211;-71
2022/11/14 08:25:31;;;;;;;6.22;5.68;;;;;;;;;;5054023;28;20235;-71
2022/11/14 08:27:58;;;;;;;6.03;5.53;;;;;;;;;;5053729;28;20215;-70
2022/11/14 08:30:26;;;;;;;6.18;5.68;;;;;;;;;;5053686;28;20197;-71
2022/11/14 08:32:54;;;;;;;6.15;5.65;;;;;;;;;;5053994;28;20209;-71
2022/11/14 08:35:21;;;;;;;6.28;5.68;;;;;;;;;;5053848;28;20577;-71
2022/11/14 08:37:48;;;;;;;5.90;5.40;;;;;;;;;;5054068;28;20205;-71
2022/11/14 08:40:17;;;;;;;6.28;5.70;;;;;;;;;;5053540;28;20593;-71
2022/11/14 08:42:45;;;;;;;6.28;5.78;;;;;;;;;;5055052;28;20762;-71
2022/11/14 08:45:12;;;;;;;6.75;6.15;;;;;;;;;;5054266;28;20247;-71
2022/11/14 08:47:40;;;;;;;5.82;5.32;;;;;;;;;;5054111;28;20207;-71
2022/11/14 08:50:07;;;;;;;5.88;5.38;;;;;;;;;;5054598;28;20205;-71
2022/11/14 08:52:35;;;;;;;5.57;5.15;;;;;;;;;;5054423;28;20208;-71
2022/11/14 08:55:02;;;;;;;5.97;5.47;;;;;;;;;;5054318;28;20193;-71
2022/11/14 08:57:31;;;;;;;6.07;5.57;;;;;;;;;;5053372;28;20201;-72
2022/11/14 08:59:59;;;;;;;6.20;5.70;;;;;;;;;;5054722;28;20235;-72
2022/11/14 09:02:27;;;;;;;5.90;5.30;;;;;;;;;;5053904;28;20492;-70
2022/11/14 09:04:54;;;;;;;6.32;5.70;;;;;;;;;;5053228;28;20619;-70
2022/11/14 09:07:21;;;;;;;6.18;5.68;;;;;;;;;;5053897;28;20206;-70
2022/11/14 09:09:49;;;;;;;6.22;5.50;;;;;;;;;;5053084;28;20205;-69
2022/11/14 09:12:16;;;;;;;5.63;5.13;;;;;;;;;;5053120;28;20603;-69
2022/11/14 09:14:45;;;;;;;6.20;5.70;;;;;;;;;;5053780;28;20235;-70
2022/11/14 09:17:13;;;;;;;5.93;5.25;;;;;;;;;;5053466;28;20782;-70
2022/11/14 09:19:40;;;;;;;5.50;5.07;;;;;;;;;;5053615;28;20215;-70
2022/11/14 09:22:07;;;;;;;6.03;5.45;;;;;;;;;;5053739;28;20201;-70
2022/11/14 09:24:35;;;;;;;6.28;5.78;;;;;;;;;;5053313;28;20228;-69
2022/11/14 09:27:02;;;;;;;6.00;5.50;;;;;;;;;;5054221;28;20202;-70
2022/11/14 09:29:30;;;;;;;5.82;5.22;;;;;;;;;;5053616;28;20657;-70
2022/11/14 09:31:58;;;;;;;6.30;5.68;;;;;;;;;;5053241;28;20296;-70
2022/11/14 09:34:26;;;;;;;5.72;5.22;;;;;;;;;;5056741;28;20201;-71
2022/11/14 09:36:53;;;;;;;5.85;5.35;;;;;;;;;;5057373;28;20201;-70
2022/11/14 09:39:20;;;;;;;6.07;5.47;;;;;;;;;;5057333;28;20209;-73
2022/11/14 09:41:54;;;;;;;6.18;5.60;;;;;;;;;;5057302;28;20205;-71
2022/11/14 09:44:26;;;;;;;6.10;5.60;;;;;;;;;;5057507;28;20203;-69
2022/11/14 09:46:54;;;;;;;5.70;5.20;;;;;;;;;;5056480;28;20209;-69
2022/11/14 09:49:27;;;;;;;6.43;5.50;;;;;;;;;;5057289;28;20211;-69
2022/11/14 09:51:59;;;;;;;5.50;5.00;;;;;;;;;;5056750;28;20690;-69
2022/11/14 09:54:29;;;;;;;6.30;5.70;;;;;;;;;;5057792;28;20205;-69
2022/11/14 09:56:56;;;;;;;5.95;5.45;;;;;;;;;;5056964;28;20197;-69
2022/11/14 09:59:24;;;;;;;5.70;5.25;;;;;;;;;;5056863;28;20259;-69
2022/11/14 10:01:56;;;;;;;5.63;5.20;;;;;;;;;;5057107;28;20205;-70
2022/11/14 10:04:26;;;;;;;5.63;5.20;;;;;;;;;;5056228;28;20208;-70
2022/11/14 10:07:00;;;;;;;5.80;5.05;;;;;;;;;;5055146;28;20205;-67
2022/11/14 10:09:39;;;;;;;5.50;5.00;;;;;;;;;;5055524;28;20205;-68
2022/11/14 10:12:12;;;;;;;7.70;5.40;;;;;;;;;;5055699;28;20200;-69
2022/11/14 10:14:53;;;;;;;5.80;4.50;;;;;;;;;;5056239;28;20205;-69
2022/11/14 10:17:25;;;;;;;5.40;4.90;;;;;;;;;;5055885;28;20730;-69
2022/11/14 10:19:56;;;;;;;5.72;5.05;;;;;;;;;;5056230;28;20274;-69
2022/11/14 10:22:33;;;;;;;5.57;4.82;;;;;;;;;;5055424;28;20197;-69
2022/11/14 10:25:12;;;;;;;5.43;5.00;;;;;;;;;;5055876;28;20225;-69
2022/11/14 10:27:45;;;;;;;5.00;4.60;;;;;;;;;;5036401;28;20290;-69
2022/11/14 10:30:15;;;;;;;5.60;5.07;;;;;;;;;;5036457;28;20292;-69
2022/11/14 10:33:00;;;;;;;7.38;5.47;;;;;;;;;;5035510;28;20221;-69
2022/11/14 10:35:30;;;;;;;5.97;5.00;;;;;;;;;;5025789;28;20193;-69
2022/11/14 10:38:03;;;;;;;5.22;4.72;;;;;;;;;;5036267;28;20215;-69
2022/11/14 10:40:34;;;;;;;5.60;5.07;;;;;;;;;;5035922;28;20767;-69
2022/11/14 10:43:04;;;;;;;5.45;4.90;;;;;;;;;;5035031;28;20224;-69
2022/11/14 10:45:33;;;;;;;5.75;5.22;;;;;;;;;;5035562;28;20221;-69
2022/11/14 10:48:03;;;;;;;5.82;5.32;;;;;;;;;;5035689;28;20205;-69
2022/11/14 10:50:36;;;;;;;5.28;4.88;;;;;;;;;;5035067;28;20368;-69
2022/11/14 10:53:11;;;;;;;4.78;4.38;;;;;;;;;;5035395;28;20271;-69
2022/11/14 10:55:38;;;;;;;5.53;5.13;;;;;;;;;;5035259;28;20201;-69
2022/11/14 10:58:09;;;;;;;5.30;4.80;;;;;;;;;;5034476;28;20205;-69
2022/11/14 11:00:36;;;;;;;5.53;5.03;;;;;;;;;;5015266;28;20209;-69
2022/11/14 11:03:04;;;;;;;5.22;4.72;;;;;;;;;;5014910;28;20202;-69
2022/11/14 11:05:31;;;;;;;4.82;4.43;;;;;;;;;;5015137;28;20509;-69
2022/11/14 11:13:32;;;;;;;4.68;4.22;;;;;;;;;;5015691;28;20295;-69
2022/11/14 11:16:01;;;;;;;5.32;4.80;;;;;;;;;;5015866;28;20209;-69
2022/11/14 11:18:29;;;;;;;5.60;5.10;;;;;;;;;;5015065;28;20206;-69
2022/11/14 11:21:07;;;;;;;4.65;4.25;;;;;;;;;;5014975;28;20217;-69
2022/11/14 11:23:35;;;;;;;5.22;4.72;;;;;;;;;;5015521;28;20206;-69
2022/11/14 11:26:07;;;;;;;5.28;4.78;;;;;;;;;;5014468;28;20646;-69
2022/11/14 11:28:35;;;;;;;5.80;5.20;;;;;;;;;;5015196;28;20642;-69
2022/11/14 11:31:04;;;;;;;5.07;4.68;;;;;;;;;;5014589;28;20206;-69
2022/11/14 11:33:32;;;;;;;5.35;4.88;;;;;;;;;;5014653;28;20277;-69
2022/11/14 11:36:02;;;;;;;5.00;4.60;;;;;;;;;;5015360;28;20234;-68
2022/11/14 11:38:30;;;;;;;4.78;4.38;;;;;;;;;;5015166;28;20233;-69
2022/11/14 11:41:01;;;;;;;4.85;4.45;;;;;;;;;;5014163;28;20216;-69
2022/11/14 11:43:32;;;;;;;5.30;4.80;;;;;;;;;;5015211;28;20206;-69
2022/11/14 11:46:01;;;;;;;5.15;4.65;;;;;;;;;;5015114;28;20740;-68
2022/11/14 11:48:30;;;;;;;5.45;5.03;;;;;;;;;;5014189;28;20268;-69
2022/11/14 11:50:58;;;;;;;4.80;4.40;;;;;;;;;;5013986;28;20206;-69
2022/11/14 11:53:29;;;;;;;4.78;4.38;;;;;;;;;;5013749;28;20232;-69
2022/11/14 11:56:00;;;;;;;4.75;4.35;;;;;;;;;;5013557;28;20671;-69
2022/11/14 11:58:30;;;;;;;5.40;4.90;;;;;;;;;;5016696;28;20548;-69
2022/11/14 12:00:59;;;;;;;4.85;4.45;;;;;;;;;;5032696;28;20202;-69
2022/11/14 12:03:27;;;;;;;4.93;4.53;;;;;;;;;;5033845;28;20210;-68
2022/11/14 12:05:59;;;;;;;5.10;4.70;;;;;;;;;;5033401;28;20500;-69
2022/11/14 12:08:32;;;;;;;4.85;4.43;;;;;;;;;;5033313;28;20263;-69
2022/11/14 12:11:00;;;;;;;4.82;4.43;;;;;;;;;;5034160;28;20598;-69
2022/11/14 12:13:42;;;;;;;4.40;4.03;;;;;;;;;;5032755;28;20228;-69
2022/11/14 12:16:18;;;;;;;4.50;4.10;;;;;;;;;;5033917;28;20201;-69
2022/11/14 12:18:59;;;;;;;4.72;4.32;;;;;;;;;;5034319;28;20209;-69
2022/11/14 12:21:35;;;;;;;4.70;4.30;;;;;;;;;;5033938;28;20205;-69
2022/11/14 12:24:20;;;;;;;4.55;4.15;;;;;;;;;;5034284;28;20628;-69
2022/11/14 12:26:52;;;;;;;4.70;4.30;;;;;;;;;;5033295;28;20634;-69
2022/11/14 12:29:35;;;;;;;4.60;4.20;;;;;;;;;;5033232;28;20198;-69
2022/11/14 12:32:06;;;;;;;4.90;4.45;;;;;;;;;;5032575;28;20236;-69
2022/11/14 12:34:35;;;;;;;4.78;4.38;;;;;;;;;;5033394;28;20208;-69
2022/11/14 12:37:08;;;;;;;4.82;4.38;;;;;;;;;;5033115;28;20194;-69
2022/11/14 12:39:36;;;;;;;5.03;4.63;;;;;;;;;;5033026;28;20210;-69
2022/11/14 12:42:04;;;;;;;4.18;3.78;;;;;;;;;;5032237;28;20845;-69
2022/11/14 12:44:33;;;;;;;4.32;3.92;;;;;;;;;;5032992;28;20304;-69
2022/11/14 12:47:14;;;;;;;4.80;4.40;;;;;;;;;;5033547;28;20340;-69
2022/11/14 12:49:56;;;;;;;4.93;4.53;;;;;;;;;;5033017;28;20201;-69
2022/11/14 12:52:44;;;;;;;4.63;4.22;;;;;;;;;;5033086;28;20197;-69
2022/11/14 12:55:26;;;;;;;4.80;4.40;;;;;;;;;;5033318;28;20594;-69
2022/11/14 12:57:58;;;;;;;4.57;4.18;;;;;;;;;;5031570;28;20583;-69
2022/11/14 13:00:26;;;;;;;4.45;4.05;;;;;;;;;;5032429;28;20237;-69
2022/11/14 13:03:17;;;;;;;4.38;4.05;;;;;;;;;;5033090;28;20223;-69
2022/11/14 13:05:50;;;;;;;4.43;4.03;;;;;;;;;;5032266;28;20225;-69
2022/11/14 13:08:23;;;;;;;4.60;4.20;;;;;;;;;;5034821;28;20212;-69
2022/11/14 13:10:50;;;;;;;4.57;4.18;;;;;;;;;;5036762;28;20206;-69
2022/11/14 13:22:14;;;;;;;4.07;3.78;;;;;;;;;;5021293;28;20502;-69
2022/11/14 13:24:59;;;;;;;4.60;4.20;;;;;;;;;;5035239;28;20213;-69
2022/11/14 13:27:29;;;;;;;4.10;3.80;;;;;;;;;;5035775;28;20229;-69
2022/11/14 13:29:58;;;;;;;4.28;3.88;;;;;;;;;;5035873;28;20206;-69
2022/11/14 13:32:44;;;;;;;4.13;3.75;;;;;;;;;;5036256;28;20206;-69
2022/11/14 13:35:14;;;;;;;3.90;3.60;;;;;;;;;;5034971;28;20208;-68
2022/11/14 13:37:53;;;;;;;3.97;3.67;;;;;;;;;;5035071;28;20202;-69
2022/11/14 13:40:23;;;;;;;4.50;4.10;;;;;;;;;;5035200;28;20924;-69
2022/11/14 13:42:56;;;;;;;4.93;4.50;;;;;;;;;;5038055;28;20206;-69
2022/11/14 13:45:34;;;;;;;4.40;4.07;;;;;;;;;;5034876;28;20205;-68
2022/11/14 13:48:17;;;;;;;4.25;3.95;;;;;;;;;;5035790;28;20212;-69
2022/11/14 13:50:48;;;;;;;4.28;3.97;;;;;;;;;;5035293;28;20206;-69
2022/11/14 13:53:18;;;;;;;4.00;3.70;;;;;;;;;;5035763;28;20201;-69
2022/11/14 13:55:56;;;;;;;3.95;3.65;;;;;;;;;;5034994;28;20813;-68
2022/11/14 13:58:31;;;;;;;4.30;3.90;;;;;;;;;;5035138;28;20212;-69
2022/11/14 14:01:07;;;;;;;4.53;4.13;;;;;;;;;;5035432;28;20197;-69
2022/11/14 14:03:45;;;;;;;4.53;4.13;;;;;;;;;;5034335;28;20650;-69
2022/11/14 14:06:17;;;;;;;4.13;3.72;;;;;;;;;;5034004;28;20217;-68
2022/11/14 14:08:52;;;;;;;4.50;4.10;;;;;;;;;;5035949;28;20201;-69
2022/11/14 14:11:29;;;;;;;4.57;4.18;;;;;;;;;;5034979;28;20205;-69
2022/11/14 14:14:04;;;;;;;3.88;3.50;;;;;;;;;;5035852;28;20205;-69
2022/11/14 14:16:35;;;;;;;4.40;4.05;;;;;;;;;;5035080;28;20208;-69
2022/11/14 14:19:07;;;;;;;4.45;4.13;;;;;;;;;;5033712;28;20201;-69
2022/11/14 14:21:41;;;;;;;4.65;4.28;;;;;;;;;;5041632;28;20193;-68
2022/11/14 14:24:17;;;;;;;3.88;3.58;;;;;;;;;;5049748;28;20201;-69
2022/11/14 14:26:54;;;;;;;3.92;3.63;;;;;;;;;;5043522;28;20256;-69
2022/11/14 14:29:26;;;;;;;4.18;3.83;;;;;;;;;;5034717;28;20205;-69
2022/11/14 14:31:54;;;;;;;4.05;3.75;;;;;;;;;;5047027;28;20228;-69
2022/11/14 14:34:22;;;;;;;3.90;3.60;;;;;;;;;;5054853;28;20672;-69
2022/11/14 14:36:50;;;;;;;4.28;3.97;;;;;;;;;;5054885;28;20211;-69
2022/11/14 14:39:19;;;;;;;4.25;3.90;;;;;;;;;;5055576;28;20307;-69
2022/11/14 14:41:47;;;;;;;3.83;3.53;;;;;;;;;;5054163;28;20205;-68
2022/11/14 14:44:20;;;;;;;3.90;3.60;;;;;;;;;;5055742;28;20205;-69
2022/11/14 14:46:49;;;;;;;4.53;4.13;;;;;;;;;;5055005;28;20235;-69
2022/11/14 14:49:19;;;;;;;4.10;3.80;;;;;;;;;;5054975;28;20216;-69
2022/11/14 14:51:46;;;;;;;4.25;3.85;;;;;;;;;;5054386;28;20207;-68
2022/11/14 14:54:19;;;;;;;3.97;3.67;;;;;;;;;;5054635;28;20227;-69
2022/11/14 14:56:53;;;;;;;4.35;3.95;;;;;;;;;;5054400;28;20216;-69
2022/11/14 14:59:22;;;;;;;4.20;3.90;;;;;;;;;;5054563;28;20857;-68
2022/11/14 15:01:52;;;;;;;4.05;3.75;;;;;;;;;;5055261;28;20212;-69
2022/11/14 15:04:20;;;;;;;3.92;3.63;;;;;;;;;;5054478;28;20252;-69
2022/11/14 15:06:48;;;;;;;3.72;3.42;;;;;;;;;;5054633;28;20224;-69
2022/11/14 15:09:20;;;;;;;3.67;3.38;;;;;;;;;;5053646;28;20347;-69